sensor_id;sensor_type;location;lat;lon;timestamp;pressure;altitude;pressure_sealevel;temperature
11926;BMP180;6022;48.768;18.608;2023-02-27T00:00:59;98442.34;;;0.15
11926;BMP180;6022;48.768;18.608;2023-02-27T00:03:27;98453.25;;;0.11
11926;BMP180;6022;48.768;18.608;2023-02-27T00:05:55;98455.63;;;0.16
11926;BMP180;6022;48.768;18.608;2023-02-27T00:08:23;98453.16;;;0.14
11926;BMP180;6022;48.768;18.608;2023-02-27T00:10:51;98451.59;;;0.10
11926;BMP180;6022;48.768;18.608;2023-02-27T00:13:19;98450.81;;;0.08
11926;BMP180;6022;48.768;18.608;2023-02-27T00:15:47;98454.97;;;0.09
11926;BMP180;6022;48.768;18.608;2023-02-27T00:18:18;98454.13;;;0.07
11926;BMP180;6022;48.768;18.608;2023-02-27T00:20:45;98454.06;;;0.12
11926;BMP180;6022;48.768;18.608;2023-02-27T00:23:14;98459.84;;;0.12
11926;BMP180;6022;48.768;18.608;2023-02-27T00:25:42;98469.03;;;0.10
11926;BMP180;6022;48.768;18.608;2023-02-27T00:28:09;98467.31;;;0.14
11926;BMP180;6022;48.768;18.608;2023-02-27T00:30:37;98483.91;;;0.15
11926;BMP180;6022;48.768;18.608;2023-02-27T00:33:04;98475.69;;;0.11
11926;BMP180;6022;48.768;18.608;2023-02-27T00:35:32;98470.81;;;0.05
11926;BMP180;6022;48.768;18.608;2023-02-27T00:38:00;98475.78;;;0.07
11926;BMP180;6022;48.768;18.608;2023-02-27T00:40:28;98465.78;;;0.08
11926;BMP180;6022;48.768;18.608;2023-02-27T00:42:56;98481.56;;;0.07
11926;BMP180;6022;48.768;18.608;2023-02-27T00:45:23;98474.97;;;0.06
11926;BMP180;6022;48.768;18.608;2023-02-27T00:47:51;98467.47;;;0.06
11926;BMP180;6022;48.768;18.608;2023-02-27T00:50:20;98462.50;;;0.06
11926;BMP180;6022;48.768;18.608;2023-02-27T00:52:47;98464.19;;;0.04
11926;BMP180;6022;48.768;18.608;2023-02-27T00:55:15;98463.31;;;0.07
11926;BMP180;6022;48.768;18.608;2023-02-27T00:57:43;98460.00;;;0.06
11926;BMP180;6022;48.768;18.608;2023-02-27T01:00:11;98450.06;;;0.03
11926;BMP180;6022;48.768;18.608;2023-02-27T01:02:39;98445.09;;;0.03
11926;BMP180;6022;48.768;18.608;2023-02-27T01:05:07;98434.31;;;0.03
11926;BMP180;6022;48.768;18.608;2023-02-27T01:07:35;98452.50;;;0.06
11926;BMP180;6022;48.768;18.608;2023-02-27T01:10:05;98454.28;;;0.01
11926;BMP180;6022;48.768;18.608;2023-02-27T01:12:38;98453.44;;;0.02
11926;BMP180;6022;48.768;18.608;2023-02-27T01:15:08;98453.50;;;-0.01
11926;BMP180;6022;48.768;18.608;2023-02-27T01:17:35;98447.75;;;-0.04
11926;BMP180;6022;48.768;18.608;2023-02-27T01:20:06;98445.22;;;-0.02
11926;BMP180;6022;48.768;18.608;2023-02-27T01:22:34;98452.72;;;-0.02
11926;BMP180;6022;48.768;18.608;2023-02-27T01:25:02;98451.91;;;-0.04
11926;BMP180;6022;48.768;18.608;2023-02-27T01:27:30;98451.03;;;-0.02
11926;BMP180;6022;48.768;18.608;2023-02-27T01:29:58;98456.84;;;-0.01
11926;BMP180;6022;48.768;18.608;2023-02-27T01:32:25;98441.91;;;-0.01
11926;BMP180;6022;48.768;18.608;2023-02-27T01:34:53;98456.78;;;0.01
11926;BMP180;6022;48.768;18.608;2023-02-27T01:37:21;98455.16;;;0.00
11926;BMP180;6022;48.768;18.608;2023-02-27T01:39:48;98446.88;;;-0.01
11926;BMP180;6022;48.768;18.608;2023-02-27T01:42:25;98456.84;;;-0.01
11926;BMP180;6022;48.768;18.608;2023-02-27T01:47:46;98448.69;;;-0.09
11926;BMP180;6022;48.768;18.608;2023-02-27T01:50:17;98459.41;;;-0.04
11926;BMP180;6022;48.768;18.608;2023-02-27T01:52:53;98464.38;;;-0.04
11926;BMP180;6022;48.768;18.608;2023-02-27T01:55:25;98461.06;;;-0.03
11926;BMP180;6022;48.768;18.608;2023-02-27T01:57:54;98458.56;;;-0.03
11926;BMP180;6022;48.768;18.608;2023-02-27T02:00:23;98459.44;;;-0.06
11926;BMP180;6022;48.768;18.608;2023-02-27T02:03:32;98465.31;;;-0.08
11926;BMP180;6022;48.768;18.608;2023-02-27T02:06:04;98466.22;;;-0.12
11926;BMP180;6022;48.768;18.608;2023-02-27T02:08:39;98462.94;;;-0.13
11926;BMP180;6022;48.768;18.608;2023-02-27T02:11:09;98458.75;;;-0.12
11926;BMP180;6022;48.768;18.608;2023-02-27T02:13:39;98455.53;;;-0.17
11926;BMP180;6022;48.768;18.608;2023-02-27T02:20:13;98468.84;;;-0.18
11926;BMP180;6022;48.768;18.608;2023-02-27T02:23:27;98478.59;;;-0.09
11926;BMP180;6022;48.768;18.608;2023-02-27T02:44:12;98497.84;;;-0.14
11926;BMP180;6022;48.768;18.608;2023-02-27T02:46:53;98492.94;;;-0.19
11926;BMP180;6022;48.768;18.608;2023-02-27T02:55:34;98508.84;;;-0.24
11926;BMP180;6022;48.768;18.608;2023-02-27T02:58:45;98519.63;;;-0.24
11926;BMP180;6022;48.768;18.608;2023-02-27T03:01:31;98519.63;;;-0.22
11926;BMP180;6022;48.768;18.608;2023-02-27T03:04:30;98517.13;;;-0.22
11926;BMP180;6022;48.768;18.608;2023-02-27T03:07:24;98524.59;;;-0.22
11926;BMP180;6022;48.768;18.608;2023-02-27T03:11:00;98528.84;;;-0.27
11926;BMP180;6022;48.768;18.608;2023-02-27T03:13:43;98531.31;;;-0.27
11926;BMP180;6022;48.768;18.608;2023-02-27T03:16:33;98542.91;;;-0.25
11926;BMP180;6022;48.768;18.608;2023-02-27T03:19:14;98535.47;;;-0.26
11926;BMP180;6022;48.768;18.608;2023-02-27T03:24:37;98540.38;;;-0.23
11926;BMP180;6022;48.768;18.608;2023-02-27T03:27:08;98539.63;;;-0.27
11926;BMP180;6022;48.768;18.608;2023-02-27T03:32:39;98541.25;;;-0.24
11926;BMP180;6022;48.768;18.608;2023-02-27T03:35:12;98530.50;;;-0.26
11926;BMP180;6022;48.768;18.608;2023-02-27T03:38:07;98542.09;;;-0.25
11926;BMP180;6022;48.768;18.608;2023-02-27T03:43:51;98552.94;;;-0.26
11926;BMP180;6022;48.768;18.608;2023-02-27T03:46:25;98552.16;;;-0.30
11926;BMP180;6022;48.768;18.608;2023-02-27T03:48:53;98548.00;;;-0.31
11926;BMP180;6022;48.768;18.608;2023-02-27T03:51:24;98542.22;;;-0.31
11926;BMP180;6022;48.768;18.608;2023-02-27T03:54:13;98555.47;;;-0.29
11926;BMP180;6022;48.768;18.608;2023-02-27T03:56:54;98558.00;;;-0.32
11926;BMP180;6022;48.768;18.608;2023-02-27T03:59:26;98546.41;;;-0.33
11926;BMP180;6022;48.768;18.608;2023-02-27T04:01:57;98547.31;;;-0.37
11926;BMP180;6022;48.768;18.608;2023-02-27T04:04:27;98552.41;;;-0.43
11926;BMP180;6022;48.768;18.608;2023-02-27T04:27:37;98567.38;;;-0.43
11926;BMP180;6022;48.768;18.608;2023-02-27T04:30:31;98571.56;;;-0.45
11926;BMP180;6022;48.768;18.608;2023-02-27T04:33:44;98571.56;;;-0.46
11926;BMP180;6022;48.768;18.608;2023-02-27T04:36:17;98574.84;;;-0.44
11926;BMP180;6022;48.768;18.608;2023-02-27T04:39:13;98576.56;;;-0.46
11926;BMP180;6022;48.768;18.608;2023-02-27T04:42:00;98574.03;;;-0.45
11926;BMP180;6022;48.768;18.608;2023-02-27T04:44:36;98580.69;;;-0.47
11926;BMP180;6022;48.768;18.608;2023-02-27T04:47:07;98569.09;;;-0.46
11926;BMP180;6022;48.768;18.608;2023-02-27T04:49:47;98572.34;;;-0.43
11926;BMP180;6022;48.768;18.608;2023-02-27T04:52:19;98573.97;;;-0.42
11926;BMP180;6022;48.768;18.608;2023-02-27T04:54:54;98571.47;;;-0.40
11926;BMP180;6022;48.768;18.608;2023-02-27T04:57:46;98568.19;;;-0.44
11926;BMP180;6022;48.768;18.608;2023-02-27T05:00:19;98574.06;;;-0.46
11926;BMP180;6022;48.768;18.608;2023-02-27T05:02:57;98586.53;;;-0.46
11926;BMP180;6022;48.768;18.608;2023-02-27T05:05:31;98579.91;;;-0.49
11926;BMP180;6022;48.768;18.608;2023-02-27T05:08:35;98581.56;;;-0.48
11926;BMP180;6022;48.768;18.608;2023-02-27T05:11:19;98594.84;;;-0.49
11926;BMP180;6022;48.768;18.608;2023-02-27T05:13:57;98593.97;;;-0.45
11926;BMP180;6022;48.768;18.608;2023-02-27T05:16:38;98594.81;;;-0.47
11926;BMP180;6022;48.768;18.608;2023-02-27T05:19:09;98593.13;;;-0.45
11926;BMP180;6022;48.768;18.608;2023-02-27T05:22:04;98598.19;;;-0.48
11926;BMP180;6022;48.768;18.608;2023-02-27T05:27:32;98600.59;;;-0.44
11926;BMP180;6022;48.768;18.608;2023-02-27T05:33:48;98609.78;;;-0.47
11926;BMP180;6022;48.768;18.608;2023-02-27T05:36:40;98602.25;;;-0.44
11926;BMP180;6022;48.768;18.608;2023-02-27T05:39:32;98607.22;;;-0.43
11926;BMP180;6022;48.768;18.608;2023-02-27T05:42:35;98613.91;;;-0.45
11926;BMP180;6022;48.768;18.608;2023-02-27T05:45:16;98614.63;;;-0.40
11926;BMP180;6022;48.768;18.608;2023-02-27T05:48:15;98611.31;;;-0.40
11926;BMP180;6022;48.768;18.608;2023-02-27T05:51:02;98618.66;;;-0.32
11926;BMP180;6022;48.768;18.608;2023-02-27T05:53:42;98629.34;;;-0.27
11926;BMP180;6022;48.768;18.608;2023-02-27T05:56:16;98636.75;;;-0.22
11926;BMP180;6022;48.768;18.608;2023-02-27T05:58:59;98628.28;;;-0.15
11926;BMP180;6022;48.768;18.608;2023-02-27T06:01:28;98634.06;;;-0.13
11926;BMP180;6022;48.768;18.608;2023-02-27T06:04:20;98635.59;;;-0.06
11926;BMP180;6022;48.768;18.608;2023-02-27T06:06:53;98639.63;;;0.00
11926;BMP180;6022;48.768;18.608;2023-02-27T06:09:25;98648.59;;;0.09
11926;BMP180;6022;48.768;18.608;2023-02-27T06:11:54;98652.63;;;0.16
11926;BMP180;6022;48.768;18.608;2023-02-27T06:14:37;98654.03;;;0.30
11926;BMP180;6022;48.768;18.608;2023-02-27T06:17:34;98649.56;;;0.44
11926;BMP180;6022;48.768;18.608;2023-02-27T06:23:44;98657.50;;;0.62
11926;BMP180;6022;48.768;18.608;2023-02-27T06:26:12;98664.00;;;0.69
11926;BMP180;6022;48.768;18.608;2023-02-27T06:28:40;98671.47;;;0.71
11926;BMP180;6022;48.768;18.608;2023-02-27T06:31:08;98659.00;;;0.69
11926;BMP180;6022;48.768;18.608;2023-02-27T06:33:39;98673.13;;;0.72
11926;BMP180;6022;48.768;18.608;2023-02-27T06:36:07;98675.50;;;0.76
11926;BMP180;6022;48.768;18.608;2023-02-27T06:38:35;98675.41;;;0.80
11926;BMP180;6022;48.768;18.608;2023-02-27T06:41:04;98679.53;;;0.83
11926;BMP180;6022;48.768;18.608;2023-02-27T06:43:36;98678.50;;;0.91
11926;BMP180;6022;48.768;18.608;2023-02-27T06:46:04;98662.53;;;0.98
11926;BMP180;6022;48.768;18.608;2023-02-27T06:48:31;98674.97;;;1.01
11926;BMP180;6022;48.768;18.608;2023-02-27T06:50:59;98672.56;;;0.97
11926;BMP180;6022;48.768;18.608;2023-02-27T06:53:26;98677.66;;;0.92
11926;BMP180;6022;48.768;18.608;2023-02-27T06:55:56;98681.66;;;0.99
11926;BMP180;6022;48.768;18.608;2023-02-27T06:58:23;98686.59;;;1.01
11926;BMP180;6022;48.768;18.608;2023-02-27T07:00:51;98677.53;;;0.98
11926;BMP180;6022;48.768;18.608;2023-02-27T07:03:19;98682.38;;;1.04
11926;BMP180;6022;48.768;18.608;2023-02-27T07:05:56;98691.91;;;1.23
11926;BMP180;6022;48.768;18.608;2023-02-27T07:08:25;98702.00;;;1.55
11926;BMP180;6022;48.768;18.608;2023-02-27T07:10:52;98699.25;;;1.65
11926;BMP180;6022;48.768;18.608;2023-02-27T07:13:20;98699.28;;;1.97
11926;BMP180;6022;48.768;18.608;2023-02-27T07:15:49;98706.44;;;2.10
11926;BMP180;6022;48.768;18.608;2023-02-27T07:18:16;98704.53;;;2.20
11926;BMP180;6022;48.768;18.608;2023-02-27T07:20:57;98714.00;;;2.07
11926;BMP180;6022;48.768;18.608;2023-02-27T07:23:26;98724.56;;;2.18
11926;BMP180;6022;48.768;18.608;2023-02-27T07:25:54;98728.06;;;2.13
11926;BMP180;6022;48.768;18.608;2023-02-27T07:28:23;98718.97;;;2.40
11926;BMP180;6022;48.768;18.608;2023-02-27T07:30:53;98714.16;;;2.63
11926;BMP180;6022;48.768;18.608;2023-02-27T07:33:23;98723.47;;;2.58
11926;BMP180;6022;48.768;18.608;2023-02-27T07:35:51;98728.81;;;2.46
11926;BMP180;6022;48.768;18.608;2023-02-27T07:38:19;98725.78;;;2.35
11926;BMP180;6022;48.768;18.608;2023-02-27T07:40:55;98725.69;;;2.40
11926;BMP180;6022;48.768;18.608;2023-02-27T07:43:26;98725.13;;;2.59
11926;BMP180;6022;48.768;18.608;2023-02-27T07:45:54;98725.13;;;2.59
11926;BMP180;6022;48.768;18.608;2023-02-27T07:48:21;98726.50;;;2.69
11926;BMP180;6022;48.768;18.608;2023-02-27T07:50:49;98733.97;;;2.72
11926;BMP180;6022;48.768;18.608;2023-02-27T07:53:16;98724.03;;;2.67
11926;BMP180;6022;48.768;18.608;2023-02-27T07:55:45;98743.50;;;2.58
11926;BMP180;6022;48.768;18.608;2023-02-27T07:58:15;98748.38;;;2.93
11926;BMP180;6022;48.768;18.608;2023-02-27T08:00:43;98736.53;;;2.98
11926;BMP180;6022;48.768;18.608;2023-02-27T08:03:10;98749.44;;;2.56
11926;BMP180;6022;48.768;18.608;2023-02-27T08:05:38;98745.44;;;2.79
11926;BMP180;6022;48.768;18.608;2023-02-27T08:08:06;98748.72;;;3.09
11926;BMP180;6022;48.768;18.608;2023-02-27T08:10:34;98747.28;;;3.30
11926;BMP180;6022;48.768;18.608;2023-02-27T08:13:02;98748.38;;;3.48
11926;BMP180;6022;48.768;18.608;2023-02-27T08:15:29;98748.72;;;3.37
11926;BMP180;6022;48.768;18.608;2023-02-27T08:17:59;98748.81;;;3.61
11926;BMP180;6022;48.768;18.608;2023-02-27T08:20:26;98762.63;;;3.99
11926;BMP180;6022;48.768;18.608;2023-02-27T08:22:54;98752.91;;;4.39
11926;BMP180;6022;48.768;18.608;2023-02-27T08:25:24;98765.72;;;4.55
11926;BMP180;6022;48.768;18.608;2023-02-27T08:27:54;98766.69;;;4.98
11926;BMP180;6022;48.768;18.608;2023-02-27T08:30:26;98772.56;;;5.20
11926;BMP180;6022;48.768;18.608;2023-02-27T08:33:00;98765.28;;;5.35
11926;BMP180;6022;48.768;18.608;2023-02-27T08:35:31;98780.19;;;5.61
11926;BMP180;6022;48.768;18.608;2023-02-27T08:37:59;98778.22;;;5.69
11926;BMP180;6022;48.768;18.608;2023-02-27T08:40:26;98775.44;;;5.32
11926;BMP180;6022;48.768;18.608;2023-02-27T08:42:53;98776.97;;;5.80
11926;BMP180;6022;48.768;18.608;2023-02-27T08:45:21;98785.41;;;6.20
11926;BMP180;6022;48.768;18.608;2023-02-27T08:47:50;98786.66;;;6.10
11926;BMP180;6022;48.768;18.608;2023-02-27T08:50:20;98796.13;;;6.25
11926;BMP180;6022;48.768;18.608;2023-02-27T08:52:53;98788.78;;;6.00
11926;BMP180;6022;48.768;18.608;2023-02-27T08:55:20;98792.41;;;5.93
11926;BMP180;6022;48.768;18.608;2023-02-27T08:57:48;98791.31;;;5.78
11926;BMP180;6022;48.768;18.608;2023-02-27T09:00:19;98807.34;;;5.76
11926;BMP180;6022;48.768;18.608;2023-02-27T09:02:47;98802.81;;;5.84
11926;BMP180;6022;48.768;18.608;2023-02-27T09:05:14;98809.56;;;6.24
11926;BMP180;6022;48.768;18.608;2023-02-27T09:07:42;98818.19;;;6.19
11926;BMP180;6022;48.768;18.608;2023-02-27T09:10:10;98811.19;;;6.05
11926;BMP180;6022;48.768;18.608;2023-02-27T09:12:38;98819.16;;;6.16
11926;BMP180;6022;48.768;18.608;2023-02-27T09:15:06;98818.03;;;6.23
11926;BMP180;6022;48.768;18.608;2023-02-27T09:17:34;98827.22;;;6.24
11926;BMP180;6022;48.768;18.608;2023-02-27T09:20:03;98827.25;;;6.44
11926;BMP180;6022;48.768;18.608;2023-02-27T09:22:31;98829.19;;;6.57
11926;BMP180;6022;48.768;18.608;2023-02-27T09:24:59;98831.78;;;6.56
11926;BMP180;6022;48.768;18.608;2023-02-27T09:27:28;98822.63;;;6.14
11926;BMP180;6022;48.768;18.608;2023-02-27T09:29:56;98824.38;;;6.32
11926;BMP180;6022;48.768;18.608;2023-02-27T09:32:25;98831.06;;;6.33
11926;BMP180;6022;48.768;18.608;2023-02-27T09:34:55;98835.28;;;6.32
11926;BMP180;6022;48.768;18.608;2023-02-27T09:37:23;98830.91;;;5.95
11926;BMP180;6022;48.768;18.608;2023-02-27T09:39:51;98830.97;;;6.14
11926;BMP180;6022;48.768;18.608;2023-02-27T09:42:24;98833.25;;;6.20
11926;BMP180;6022;48.768;18.608;2023-02-27T09:45:05;98832.28;;;6.03
11926;BMP180;6022;48.768;18.608;2023-02-27T09:47:46;98840.16;;;6.15
11926;BMP180;6022;48.768;18.608;2023-02-27T09:50:44;98843.47;;;5.75
11926;BMP180;6022;48.768;18.608;2023-02-27T09:56:04;98847.19;;;6.07
11926;BMP180;6022;48.768;18.608;2023-02-27T09:59:17;98861.59;;;6.25
11926;BMP180;6022;48.768;18.608;2023-02-27T10:01:56;98858.25;;;6.25
11926;BMP180;6022;48.768;18.608;2023-02-27T10:16:24;98867.59;;;6.02
11926;BMP180;6022;48.768;18.608;2023-02-27T10:19:00;98857.16;;;6.10
11926;BMP180;6022;48.768;18.608;2023-02-27T10:21:43;98864.78;;;5.88
11926;BMP180;6022;48.768;18.608;2023-02-27T10:24:24;98856.44;;;5.42
11926;BMP180;6022;48.768;18.608;2023-02-27T10:26:57;98872.47;;;5.39
11926;BMP180;6022;48.768;18.608;2023-02-27T10:29:37;98864.47;;;5.51
11926;BMP180;6022;48.768;18.608;2023-02-27T10:32:25;98881.41;;;5.46
11926;BMP180;6022;48.768;18.608;2023-02-27T10:35:07;98879.19;;;5.84
11926;BMP180;6022;48.768;18.608;2023-02-27T10:37:45;98883.50;;;5.81
11926;BMP180;6022;48.768;18.608;2023-02-27T10:40:15;98878.53;;;5.79
11926;BMP180;6022;48.768;18.608;2023-02-27T10:42:47;98888.31;;;5.87
11926;BMP180;6022;48.768;18.608;2023-02-27T10:45:15;98888.69;;;5.99
11926;BMP180;6022;48.768;18.608;2023-02-27T10:47:43;98883.03;;;5.93
11926;BMP180;6022;48.768;18.608;2023-02-27T10:50:35;98891.09;;;6.01
11926;BMP180;6022;48.768;18.608;2023-02-27T10:53:26;98892.88;;;5.99
11926;BMP180;6022;48.768;18.608;2023-02-27T10:56:02;98886.81;;;6.25
11926;BMP180;6022;48.768;18.608;2023-02-27T10:58:34;98890.16;;;6.45
11926;BMP180;6022;48.768;18.608;2023-02-27T11:01:13;98896.84;;;6.46
11926;BMP180;6022;48.768;18.608;2023-02-27T11:03:43;98888.78;;;6.17
11926;BMP180;6022;48.768;18.608;2023-02-27T11:06:24;98891.47;;;6.13
11926;BMP180;6022;48.768;18.608;2023-02-27T11:09:26;98892.75;;;6.23
11926;BMP180;6022;48.768;18.608;2023-02-27T11:11:55;98895.56;;;6.37
11926;BMP180;6022;48.768;18.608;2023-02-27T11:14:54;98890.84;;;6.49
11926;BMP180;6022;48.768;18.608;2023-02-27T11:17:32;98892.56;;;6.48
11926;BMP180;6022;48.768;18.608;2023-02-27T11:20:03;98889.09;;;6.51
11926;BMP180;6022;48.768;18.608;2023-02-27T11:22:34;98887.91;;;6.59
11926;BMP180;6022;48.768;18.608;2023-02-27T11:25:23;98893.28;;;6.31
11926;BMP180;6022;48.768;18.608;2023-02-27T11:27:53;98887.38;;;6.10
11926;BMP180;6022;48.768;18.608;2023-02-27T11:30:37;98890.50;;;6.58
11926;BMP180;6022;48.768;18.608;2023-02-27T11:33:18;98882.72;;;6.83
11926;BMP180;6022;48.768;18.608;2023-02-27T11:35:54;98888.63;;;6.82
11926;BMP180;6022;48.768;18.608;2023-02-27T11:38:33;98882.72;;;7.02
11926;BMP180;6022;48.768;18.608;2023-02-27T11:41:06;98884.72;;;6.95
11926;BMP180;6022;48.768;18.608;2023-02-27T11:43:46;98876.50;;;6.51
11926;BMP180;6022;48.768;18.608;2023-02-27T11:46:21;98891.56;;;6.52
11926;BMP180;6022;48.768;18.608;2023-02-27T11:49:34;98879.22;;;6.46
11926;BMP180;6022;48.768;18.608;2023-02-27T11:52:46;98879.19;;;6.05
11926;BMP180;6022;48.768;18.608;2023-02-27T11:55:22;98881.50;;;6.31
11926;BMP180;6022;48.768;18.608;2023-02-27T11:58:05;98888.63;;;6.63
11926;BMP180;6022;48.768;18.608;2023-02-27T12:00:57;98878.28;;;6.88
11926;BMP180;6022;48.768;18.608;2023-02-27T12:06:42;98879.78;;;7.12
11926;BMP180;6022;48.768;18.608;2023-02-27T12:09:22;98876.50;;;7.10
11926;BMP180;6022;48.768;18.608;2023-02-27T12:11:55;98882.06;;;6.98
11926;BMP180;6022;48.768;18.608;2023-02-27T12:17:41;98872.34;;;6.89
11926;BMP180;6022;48.768;18.608;2023-02-27T12:22:57;98874.50;;;6.78
11926;BMP180;6022;48.768;18.608;2023-02-27T12:25:44;98873.06;;;6.93
11926;BMP180;6022;48.768;18.608;2023-02-27T12:31:12;98883.59;;;6.63
11926;BMP180;6022;48.768;18.608;2023-02-27T12:34:05;98886.78;;;6.46
11926;BMP180;6022;48.768;18.608;2023-02-27T12:36:37;98884.41;;;6.63
11926;BMP180;6022;48.768;18.608;2023-02-27T12:39:14;98886.00;;;7.04
11926;BMP180;6022;48.768;18.608;2023-02-27T12:42:31;98881.81;;;6.65
11926;BMP180;6022;48.768;18.608;2023-02-27T12:54:26;98890.38;;;6.61
11926;BMP180;6022;48.768;18.608;2023-02-27T13:03:02;98883.94;;;6.74
11926;BMP180;6022;48.768;18.608;2023-02-27T13:08:36;98889.19;;;6.28
11926;BMP180;6022;48.768;18.608;2023-02-27T13:17:29;98892.06;;;5.98
11926;BMP180;6022;48.768;18.608;2023-02-27T13:20:32;98883.72;;;6.17
11926;BMP180;6022;48.768;18.608;2023-02-27T13:25:55;98892.69;;;6.24
11926;BMP180;6022;48.768;18.608;2023-02-27T13:28:27;98891.53;;;6.33
11926;BMP180;6022;48.768;18.608;2023-02-27T13:34:32;98889.69;;;6.36
11926;BMP180;6022;48.768;18.608;2023-02-27T13:37:04;98880.91;;;6.25
11926;BMP180;6022;48.768;18.608;2023-02-27T13:40:28;98888.53;;;5.81
11926;BMP180;6022;48.768;18.608;2023-02-27T13:45:53;98890.28;;;5.79
11926;BMP180;6022;48.768;18.608;2023-02-27T13:48:43;98892.59;;;5.39
11926;BMP180;6022;48.768;18.608;2023-02-27T13:51:53;98904.16;;;5.43
11926;BMP180;6022;48.768;18.608;2023-02-27T13:54:27;98898.97;;;5.48
11926;BMP180;6022;48.768;18.608;2023-02-27T13:57:20;98904.16;;;5.43
11926;BMP180;6022;48.768;18.608;2023-02-27T14:00:04;98910.28;;;5.59
11926;BMP180;6022;48.768;18.608;2023-02-27T14:02:52;98903.19;;;5.47
11926;BMP180;6022;48.768;18.608;2023-02-27T14:05:40;98902.41;;;5.45
11926;BMP180;6022;48.768;18.608;2023-02-27T14:08:24;98904.41;;;5.60
11926;BMP180;6022;48.768;18.608;2023-02-27T14:11:16;98909.66;;;5.54
11926;BMP180;6022;48.768;18.608;2023-02-27T14:19:42;98907.66;;;5.17
11926;BMP180;6022;48.768;18.608;2023-02-27T14:24:56;98909.06;;;4.99
11926;BMP180;6022;48.768;18.608;2023-02-27T14:27:47;98915.59;;;4.81
11926;BMP180;6022;48.768;18.608;2023-02-27T14:30:35;98929.09;;;4.78
11926;BMP180;6022;48.768;18.608;2023-02-27T14:33:21;98929.84;;;4.80
11926;BMP180;6022;48.768;18.608;2023-02-27T14:36:34;98927.06;;;4.63
11926;BMP180;6022;48.768;18.608;2023-02-27T14:39:33;98937.00;;;4.41
11926;BMP180;6022;48.768;18.608;2023-02-27T14:42:31;98940.22;;;4.46
11926;BMP180;6022;48.768;18.608;2023-02-27T14:45:12;98935.28;;;4.68
11926;BMP180;6022;48.768;18.608;2023-02-27T14:47:53;98933.06;;;4.59
11926;BMP180;6022;48.768;18.608;2023-02-27T14:50:39;98942.22;;;4.35
11926;BMP180;6022;48.768;18.608;2023-02-27T14:54:20;98945.78;;;4.28
11926;BMP180;6022;48.768;18.608;2023-02-27T14:57:02;98942.31;;;4.32
11926;BMP180;6022;48.768;18.608;2023-02-27T14:59:44;98946.13;;;4.17
11926;BMP180;6022;48.768;18.608;2023-02-27T15:02:29;98938.53;;;4.19
11926;BMP180;6022;48.768;18.608;2023-02-27T15:07:39;98961.31;;;3.84
11926;BMP180;6022;48.768;18.608;2023-02-27T15:10:16;98960.00;;;4.00
11926;BMP180;6022;48.768;18.608;2023-02-27T15:12:49;98960.56;;;3.82
11926;BMP180;6022;48.768;18.608;2023-02-27T15:15:20;98960.78;;;4.02
11926;BMP180;6022;48.768;18.608;2023-02-27T15:17:52;98960.22;;;3.93
11926;BMP180;6022;48.768;18.608;2023-02-27T15:23:26;98971.34;;;3.86
11926;BMP180;6022;48.768;18.608;2023-02-27T15:25:56;98981.81;;;3.70
11926;BMP180;6022;48.768;18.608;2023-02-27T15:28:36;98970.28;;;3.64
11926;BMP180;6022;48.768;18.608;2023-02-27T15:31:18;98972.50;;;3.75
11926;BMP180;6022;48.768;18.608;2023-02-27T15:34:01;98975.38;;;3.61
11926;BMP180;6022;48.768;18.608;2023-02-27T15:36:34;98981.91;;;3.67
11926;BMP180;6022;48.768;18.608;2023-02-27T15:39:07;98977.78;;;3.64
11926;BMP180;6022;48.768;18.608;2023-02-27T15:41:51;98988.13;;;3.54
11926;BMP180;6022;48.768;18.608;2023-02-27T15:44:26;98999.19;;;3.47
11926;BMP180;6022;48.768;18.608;2023-02-27T15:47:24;98999.03;;;3.21
11926;BMP180;6022;48.768;18.608;2023-02-27T15:50:11;98995.50;;;3.28
11926;BMP180;6022;48.768;18.608;2023-02-27T15:53:27;99001.44;;;3.26
11926;BMP180;6022;48.768;18.608;2023-02-27T15:55:58;99003.47;;;3.42
11926;BMP180;6022;48.768;18.608;2023-02-27T15:58:36;99008.03;;;3.28
11926;BMP180;6022;48.768;18.608;2023-02-27T16:01:20;99015.41;;;3.34
11926;BMP180;6022;48.768;18.608;2023-02-27T16:03:58;99000.91;;;3.13
11926;BMP180;6022;48.768;18.608;2023-02-27T16:09:17;99018.16;;;2.92
11926;BMP180;6022;48.768;18.608;2023-02-27T16:15:33;99019.66;;;2.98
11926;BMP180;6022;48.768;18.608;2023-02-27T16:20:50;99028.34;;;2.85
11926;BMP180;6022;48.768;18.608;2023-02-27T16:23:29;99037.47;;;2.87
11926;BMP180;6022;48.768;18.608;2023-02-27T16:26:39;99040.31;;;2.74
11926;BMP180;6022;48.768;18.608;2023-02-27T16:29:30;99049.59;;;2.69
11926;BMP180;6022;48.768;18.608;2023-02-27T16:32:00;99052.50;;;2.51
11926;BMP180;6022;48.768;18.608;2023-02-27T16:34:34;99064.28;;;2.46
11926;BMP180;6022;48.768;18.608;2023-02-27T16:37:26;99056.03;;;2.43
11926;BMP180;6022;48.768;18.608;2023-02-27T16:39:56;99066.00;;;2.44
11926;BMP180;6022;48.768;18.608;2023-02-27T16:42:26;99068.00;;;2.29
11926;BMP180;6022;48.768;18.608;2023-02-27T16:44:53;99076.41;;;2.26
11926;BMP180;6022;48.768;18.608;2023-02-27T16:47:21;99083.97;;;2.24
11926;BMP180;6022;48.768;18.608;2023-02-27T16:49:49;99076.28;;;2.32
11926;BMP180;6022;48.768;18.608;2023-02-27T16:52:16;99079.44;;;2.40
11926;BMP180;6022;48.768;18.608;2023-02-27T16:54:43;99085.50;;;2.30
11926;BMP180;6022;48.768;18.608;2023-02-27T16:57:11;99086.53;;;2.21
11926;BMP180;6022;48.768;18.608;2023-02-27T16:59:39;99097.47;;;2.17
11926;BMP180;6022;48.768;18.608;2023-02-27T17:02:12;99106.53;;;2.21
11926;BMP180;6022;48.768;18.608;2023-02-27T17:04:41;99099.13;;;2.18
11926;BMP180;6022;48.768;18.608;2023-02-27T17:07:16;99108.47;;;2.10
11926;BMP180;6022;48.768;18.608;2023-02-27T17:09:46;99109.41;;;2.03
11926;BMP180;6022;48.768;18.608;2023-02-27T17:12:14;99112.03;;;1.97
11926;BMP180;6022;48.768;18.608;2023-02-27T17:14:41;99117.88;;;1.97
11926;BMP180;6022;48.768;18.608;2023-02-27T17:17:08;99116.94;;;2.03
11926;BMP180;6022;48.768;18.608;2023-02-27T17:19:38;99119.50;;;1.98
11926;BMP180;6022;48.768;18.608;2023-02-27T17:22:05;99121.34;;;1.89
11926;BMP180;6022;48.768;18.608;2023-02-27T17:24:33;99120.94;;;1.66
11926;BMP180;6022;48.768;18.608;2023-02-27T17:27:00;99125.75;;;1.77
11926;BMP180;6022;48.768;18.608;2023-02-27T17:29:41;99135.75;;;1.77
11926;BMP180;6022;48.768;18.608;2023-02-27T17:32:11;99126.56;;;1.77
11926;BMP180;6022;48.768;18.608;2023-02-27T17:34:58;99133.19;;;1.80
11926;BMP180;6022;48.768;18.608;2023-02-27T17:37:34;99134.94;;;1.76
11926;BMP180;6022;48.768;18.608;2023-02-27T17:40:04;99137.34;;;1.82
11926;BMP180;6022;48.768;18.608;2023-02-27T17:42:38;99136.56;;;1.77
11926;BMP180;6022;48.768;18.608;2023-02-27T17:45:11;99145.19;;;1.63
11926;BMP180;6022;48.768;18.608;2023-02-27T17:47:46;99145.13;;;1.66